createdAt,value
2023-03-03T00:00:33.698Z,1018.22
2023-03-03T00:01:33.669Z,1018.31
2023-03-03T00:02:33.668Z,1018.35
2023-03-03T00:03:33.700Z,1018.33
2023-03-03T00:04:33.630Z,1018.36
2023-03-03T00:05:33.640Z,1018.32
2023-03-03T00:06:33.610Z,1018.34
2023-03-03T00:07:33.603Z,1018.34
2023-03-03T00:08:33.613Z,1018.42
2023-03-03T00:09:33.580Z,1018.45
2023-03-03T00:10:33.592Z,1018.45
2023-03-03T00:11:33.586Z,1018.41
2023-03-03T00:12:33.546Z,1018.43
2023-03-03T00:13:33.531Z,1018.41
2023-03-03T00:14:33.553Z,1018.45
2023-03-03T00:15:33.555Z,1018.42
2023-03-03T00:16:33.498Z,1018.39
2023-03-03T00:17:33.490Z,1018.39
2023-03-03T00:18:33.499Z,1018.33
2023-03-03T00:19:33.474Z,1018.36
2023-03-03T00:20:33.461Z,1018.34
2023-03-03T00:21:33.479Z,1018.33
2023-03-03T00:22:33.528Z,1018.29
2023-03-03T00:23:33.424Z,1018.33
2023-03-03T00:24:33.434Z,1018.36
2023-03-03T00:25:33.411Z,1018.31
2023-03-03T00:26:33.385Z,1018.31
2023-03-03T00:27:33.392Z,1018.24
2023-03-03T00:28:33.360Z,1018.25
2023-03-03T00:29:33.370Z,1018.15
2023-03-03T00:30:33.343Z,1018.16
2023-03-03T00:31:33.477Z,1018.17
2023-03-03T00:32:33.337Z,1018.14
2023-03-03T00:33:33.322Z,1018.19
2023-03-03T00:34:33.307Z,1018.16
2023-03-03T00:35:33.325Z,1018.14
2023-03-03T00:36:33.279Z,1018.10
2023-03-03T00:37:33.285Z,1018.13
2023-03-03T00:38:33.348Z,1018.09
2023-03-03T00:39:33.257Z,1018.11
2023-03-03T00:40:33.273Z,1018.16
2023-03-03T00:41:33.232Z,1018.22
2023-03-03T00:42:33.230Z,1018.23
2023-03-03T00:43:33.225Z,1018.27
2023-03-03T00:44:33.197Z,1018.18
2023-03-03T00:45:33.276Z,1018.13
2023-03-03T00:46:33.211Z,1018.07
2023-03-03T00:47:33.179Z,1018.05
2023-03-03T00:48:33.144Z,1018.05
2023-03-03T00:49:33.139Z,1018.04
2023-03-03T00:50:33.128Z,1018.01
2023-03-03T00:51:33.138Z,1018.01
2023-03-03T00:52:33.104Z,1018.02
2023-03-03T00:53:33.098Z,1018.00
2023-03-03T00:54:33.077Z,1018.01
2023-03-03T00:55:33.075Z,1018.04
2023-03-03T00:56:33.125Z,1018.05
2023-03-03T00:57:33.058Z,1018.04
2023-03-03T00:58:33.036Z,1018.00
2023-03-03T00:59:33.050Z,1017.93
2023-03-03T01:00:34.190Z,1017.93
2023-03-03T01:01:33.060Z,1018.00
2023-03-03T01:02:33.144Z,1017.97
2023-03-03T01:03:32.987Z,1017.99
2023-03-03T01:04:32.974Z,1017.98
2023-03-03T01:05:32.999Z,1018.02
2023-03-03T01:06:32.957Z,1017.96
2023-03-03T01:07:32.943Z,1017.90
2023-03-03T01:08:32.939Z,1017.88
2023-03-03T01:09:32.925Z,1017.84
2023-03-03T01:10:32.908Z,1017.82
2023-03-03T01:11:32.910Z,1017.85
2023-03-03T01:12:32.908Z,1017.91
2023-03-03T01:13:32.888Z,1017.94
2023-03-03T01:14:32.955Z,1017.95
2023-03-03T01:15:32.905Z,1017.94
2023-03-03T01:16:32.856Z,1017.89
2023-03-03T01:17:32.836Z,1017.93
2023-03-03T01:18:32.850Z,1017.84
2023-03-03T01:19:32.815Z,1017.90
2023-03-03T01:20:32.814Z,1017.86
2023-03-03T01:21:32.808Z,1017.86
2023-03-03T01:22:32.770Z,1017.89
2023-03-03T01:23:32.768Z,1017.83
2023-03-03T01:24:33.431Z,1017.84
2023-03-03T01:25:32.744Z,1017.83
2023-03-03T01:26:32.725Z,1017.79
2023-03-03T01:27:32.726Z,1017.80
2023-03-03T01:28:32.728Z,1017.79
2023-03-03T01:29:32.745Z,1017.75
2023-03-03T01:30:32.684Z,1017.70
2023-03-03T01:31:32.747Z,1017.73
2023-03-03T01:32:32.702Z,1017.75
2023-03-03T01:33:32.661Z,1017.72
2023-03-03T01:34:32.639Z,1017.70
2023-03-03T01:35:32.651Z,1017.69
2023-03-03T01:36:32.629Z,1017.63
2023-03-03T01:37:32.611Z,1017.63
2023-03-03T01:38:32.599Z,1017.61
2023-03-03T01:39:32.592Z,1017.63
2023-03-03T01:40:32.661Z,1017.61
2023-03-03T01:41:32.569Z,1017.58
2023-03-03T01:42:32.565Z,1017.55
2023-03-03T01:43:32.556Z,1017.58
2023-03-03T01:44:32.546Z,1017.59
2023-03-03T01:45:32.570Z,1017.57
2023-03-03T01:46:32.547Z,1017.55
2023-03-03T01:47:32.494Z,1017.52
2023-03-03T01:48:32.487Z,1017.56
2023-03-03T01:49:32.481Z,1017.56
2023-03-03T01:50:32.967Z,1017.55
2023-03-03T01:51:32.463Z,1017.52
2023-03-03T01:52:32.445Z,1017.51
2023-03-03T01:53:32.432Z,1017.49
2023-03-03T01:54:32.430Z,1017.52
2023-03-03T01:55:32.413Z,1017.54
2023-03-03T01:56:32.415Z,1017.51
2023-03-03T01:57:32.391Z,1017.50
2023-03-03T01:58:32.386Z,1017.54
2023-03-03T01:59:32.397Z,1017.54
2023-03-03T02:00:32.373Z,1017.57
2023-03-03T02:01:32.434Z,1017.53
2023-03-03T02:02:32.342Z,1017.49
2023-03-03T02:03:32.338Z,1017.49
2023-03-03T02:04:32.312Z,1017.53
2023-03-03T02:05:32.323Z,1017.51
2023-03-03T02:06:32.299Z,1017.52
2023-03-03T02:07:32.279Z,1017.49
2023-03-03T02:08:32.276Z,1017.51
2023-03-03T02:09:32.260Z,1017.52
2023-03-03T02:10:32.246Z,1017.50
2023-03-03T02:11:32.267Z,1017.55
2023-03-03T02:12:32.230Z,1017.55
2023-03-03T02:13:32.213Z,1017.63
2023-03-03T02:14:32.203Z,1017.63
2023-03-03T02:15:32.204Z,1017.63
2023-03-03T02:16:32.298Z,1017.65
2023-03-03T02:17:32.194Z,1017.62
2023-03-03T02:18:32.168Z,1017.62
2023-03-03T02:19:32.174Z,1017.64
2023-03-03T02:20:32.148Z,1017.64
2023-03-03T02:21:32.132Z,1017.60
2023-03-03T02:22:32.136Z,1017.61
2023-03-03T02:23:32.106Z,1017.60
2023-03-03T02:24:32.093Z,1017.65
2023-03-03T02:25:32.085Z,1017.65
2023-03-03T02:26:32.076Z,1017.62
2023-03-03T02:27:32.093Z,1017.61
2023-03-03T02:28:32.054Z,1017.59
2023-03-03T02:29:32.041Z,1017.61
2023-03-03T02:30:32.038Z,1017.70
2023-03-03T02:31:32.044Z,1017.70
2023-03-03T02:32:32.076Z,1017.68
2023-03-03T02:33:32.014Z,1017.71
2023-03-03T02:34:31.992Z,1017.73
2023-03-03T02:35:32.212Z,1017.65
2023-03-03T02:36:31.986Z,1017.62
2023-03-03T02:37:31.974Z,1017.57
2023-03-03T02:38:31.958Z,1017.64
2023-03-03T02:39:31.939Z,1017.61
2023-03-03T02:40:31.925Z,1017.63
2023-03-03T02:41:31.917Z,1017.60
2023-03-03T02:42:31.930Z,1017.55
2023-03-03T02:43:31.893Z,1017.68
2023-03-03T02:44:31.902Z,1017.60
2023-03-03T02:45:31.933Z,1017.61
2023-03-03T02:46:31.870Z,1017.58
2023-03-03T02:47:31.847Z,1017.65
2023-03-03T02:48:31.862Z,1017.65
2023-03-03T02:49:31.823Z,1017.65
2023-03-03T02:50:31.823Z,1017.62
2023-03-03T02:51:31.812Z,1017.61
2023-03-03T02:52:31.792Z,1017.62
2023-03-03T02:53:31.806Z,1017.60
2023-03-03T02:54:31.804Z,1017.55
2023-03-03T02:55:31.755Z,1017.55
2023-03-03T02:56:31.751Z,1017.56
2023-03-03T02:57:31.733Z,1017.58
2023-03-03T02:58:31.739Z,1017.60
2023-03-03T02:59:31.713Z,1017.59
2023-03-03T03:00:31.736Z,1017.61
2023-03-03T03:01:31.707Z,1017.62
2023-03-03T03:02:31.678Z,1017.58
2023-03-03T03:03:31.684Z,1017.61
2023-03-03T03:04:31.827Z,1017.66
2023-03-03T03:05:31.647Z,1017.69
2023-03-03T03:06:31.635Z,1017.66
2023-03-03T03:07:31.623Z,1017.62
2023-03-03T03:08:31.629Z,1017.63
2023-03-03T03:09:31.602Z,1017.62
2023-03-03T03:10:31.609Z,1017.67
2023-03-03T03:11:31.585Z,1017.67
2023-03-03T03:12:31.573Z,1017.70
2023-03-03T03:13:31.781Z,1017.65
2023-03-03T03:14:31.552Z,1017.67
2023-03-03T03:15:31.533Z,1017.73
2023-03-03T03:16:31.584Z,1017.76
2023-03-03T03:17:31.513Z,1017.77
2023-03-03T03:18:31.516Z,1017.77
2023-03-03T03:19:31.505Z,1017.83
2023-03-03T03:20:31.498Z,1017.86
2023-03-03T03:21:31.464Z,1017.84
2023-03-03T03:22:31.456Z,1017.89
2023-03-03T03:23:31.459Z,1017.91
2023-03-03T03:24:31.461Z,1017.85
2023-03-03T03:25:31.429Z,1017.86
2023-03-03T03:26:31.410Z,1017.92
2023-03-03T03:27:31.405Z,1017.97
2023-03-03T03:28:31.452Z,1017.94
2023-03-03T03:29:31.395Z,1017.89
2023-03-03T03:30:31.404Z,1017.89
2023-03-03T03:31:31.359Z,1017.88
2023-03-03T03:32:31.442Z,1017.93
2023-03-03T03:33:31.362Z,1017.86
2023-03-03T03:34:31.327Z,1017.90
2023-03-03T03:35:31.342Z,1017.87
2023-03-03T03:36:31.325Z,1017.91
2023-03-03T03:37:31.295Z,1017.89
2023-03-03T03:38:31.322Z,1017.97
2023-03-03T03:39:31.271Z,1018.00
2023-03-03T03:40:31.271Z,1018.05
2023-03-03T03:41:31.249Z,1017.99
2023-03-03T03:42:31.261Z,1017.96
2023-03-03T03:43:31.227Z,1017.96
2023-03-03T03:44:31.255Z,1017.89
2023-03-03T03:45:31.206Z,1017.87
2023-03-03T03:46:31.210Z,1017.82
2023-03-03T03:47:31.198Z,1017.80
2023-03-03T03:48:31.169Z,1017.78
2023-03-03T03:49:31.164Z,1017.77
2023-03-03T03:50:31.155Z,1017.77
2023-03-03T03:51:31.142Z,1017.81
2023-03-03T03:52:31.184Z,1017.83
2023-03-03T03:53:31.136Z,1017.79
2023-03-03T03:54:31.291Z,1017.77
2023-03-03T03:55:31.096Z,1017.77
2023-03-03T03:56:31.116Z,1017.77
2023-03-03T03:57:31.096Z,1017.73
2023-03-03T03:58:31.072Z,1017.74
2023-03-03T03:59:31.065Z,1017.72
2023-03-03T04:00:31.048Z,1017.67
2023-03-03T04:01:31.198Z,1017.66
2023-03-03T04:02:31.109Z,1017.62
2023-03-03T04:03:31.117Z,1017.61
2023-03-03T04:04:30.998Z,1017.65
2023-03-03T04:05:30.984Z,1017.64
2023-03-03T04:06:30.980Z,1017.59
2023-03-03T04:07:30.987Z,1017.56
2023-03-03T04:08:30.976Z,1017.61
2023-03-03T04:09:30.995Z,1017.59
2023-03-03T04:10:30.940Z,1017.62
2023-03-03T04:11:30.929Z,1017.61
2023-03-03T04:12:30.932Z,1017.55
2023-03-03T04:13:30.913Z,1017.58
2023-03-03T04:14:30.941Z,1017.50
2023-03-03T04:15:30.943Z,1017.54
2023-03-03T04:16:30.875Z,1017.52
2023-03-03T04:17:30.878Z,1017.50
2023-03-03T04:18:30.863Z,1017.50
2023-03-03T04:19:30.863Z,1017.50
2023-03-03T04:20:30.835Z,1017.49
2023-03-03T04:21:30.849Z,1017.51
2023-03-03T04:22:30.807Z,1017.55
2023-03-03T04:23:30.914Z,1017.54
2023-03-03T04:24:30.813Z,1017.51
2023-03-03T04:25:30.774Z,1017.50
2023-03-03T04:26:30.765Z,1017.46
2023-03-03T04:27:30.775Z,1017.45
2023-03-03T04:28:30.751Z,1017.42
2023-03-03T04:29:30.763Z,1017.52
2023-03-03T04:30:30.729Z,1017.53
2023-03-03T04:31:30.715Z,1017.55
2023-03-03T04:32:30.765Z,1017.50
2023-03-03T04:33:30.738Z,1017.45
2023-03-03T04:34:30.706Z,1017.48
2023-03-03T04:35:30.693Z,1017.46
2023-03-03T04:36:30.663Z,1017.51
2023-03-03T04:37:30.648Z,1017.48
2023-03-03T04:38:30.637Z,1017.49
2023-03-03T04:39:30.634Z,1017.47
2023-03-03T04:40:30.645Z,1017.43
2023-03-03T04:41:30.606Z,1017.44
2023-03-03T04:42:30.593Z,1017.42
2023-03-03T04:43:30.609Z,1017.42
2023-03-03T04:44:30.572Z,1017.41
2023-03-03T04:45:30.559Z,1017.44
2023-03-03T04:46:30.704Z,1017.50
2023-03-03T04:47:30.536Z,1017.56
2023-03-03T04:48:30.545Z,1017.50
2023-03-03T04:49:30.546Z,1017.51
2023-03-03T04:50:30.504Z,1017.52
2023-03-03T04:51:30.491Z,1017.52
2023-03-03T04:52:30.485Z,1017.53
2023-03-03T04:53:30.476Z,1017.51
2023-03-03T04:54:30.458Z,1017.48
2023-03-03T04:55:30.460Z,1017.51
2023-03-03T04:56:30.462Z,1017.54
2023-03-03T04:57:30.428Z,1017.55
2023-03-03T04:58:30.482Z,1017.58
2023-03-03T04:59:30.406Z,1017.57
2023-03-03T05:00:30.394Z,1017.58
2023-03-03T05:01:30.422Z,1017.54
2023-03-03T05:02:30.368Z,1017.52
2023-03-03T05:03:30.373Z,1017.51
2023-03-03T05:04:30.370Z,1017.50
2023-03-03T05:05:30.335Z,1017.50
2023-03-03T05:06:30.328Z,1017.52
2023-03-03T05:07:30.317Z,1017.55
2023-03-03T05:08:30.316Z,1017.52
2023-03-03T05:09:30.296Z,1017.47
2023-03-03T05:10:30.286Z,1017.55
2023-03-03T05:11:30.288Z,1017.41
2023-03-03T05:12:30.274Z,1017.46
2023-03-03T05:13:30.258Z,1017.48
2023-03-03T05:14:30.235Z,1017.55
2023-03-03T05:15:30.294Z,1017.52
2023-03-03T05:16:30.299Z,1017.52
2023-03-03T05:17:30.305Z,1017.52
2023-03-03T05:18:30.192Z,1017.47
2023-03-03T05:19:30.191Z,1017.44
2023-03-03T05:20:30.178Z,1017.40
2023-03-03T05:21:30.170Z,1017.41
2023-03-03T05:22:30.145Z,1017.43
2023-03-03T05:23:30.130Z,1017.46
2023-03-03T05:24:30.124Z,1017.42
2023-03-03T05:25:30.131Z,1017.45
2023-03-03T05:26:30.110Z,1017.46
2023-03-03T05:27:30.088Z,1017.42
2023-03-03T05:28:30.124Z,1017.43
2023-03-03T05:29:30.069Z,1017.43
2023-03-03T05:30:30.054Z,1017.43
2023-03-03T05:31:30.147Z,1017.40
2023-03-03T05:32:30.128Z,1017.42
2023-03-03T05:33:30.025Z,1017.46
2023-03-03T05:34:30.015Z,1017.50
2023-03-03T05:35:30.067Z,1017.52
2023-03-03T05:36:30.108Z,1017.52
2023-03-03T05:37:29.978Z,1017.52
2023-03-03T05:38:29.964Z,1017.52
2023-03-03T05:39:29.957Z,1017.58
2023-03-03T05:40:29.978Z,1017.64
2023-03-03T05:41:29.939Z,1017.66
2023-03-03T05:42:29.940Z,1017.71
2023-03-03T05:43:29.911Z,1017.66
2023-03-03T05:44:29.941Z,1017.67
2023-03-03T05:45:29.929Z,1017.72
2023-03-03T05:46:29.898Z,1017.74
2023-03-03T05:47:29.870Z,1017.73
2023-03-03T05:48:29.868Z,1017.76
2023-03-03T05:49:29.841Z,1017.82
2023-03-03T05:50:29.833Z,1017.86
2023-03-03T05:51:29.839Z,1017.84
2023-03-03T05:52:29.817Z,1017.85
2023-03-03T05:53:29.804Z,1017.84
2023-03-03T05:54:29.799Z,1017.79
2023-03-03T05:55:29.803Z,1017.76
2023-03-03T05:56:29.788Z,1017.80
2023-03-03T05:57:29.773Z,1017.77
2023-03-03T05:58:29.857Z,1017.77
2023-03-03T05:59:29.751Z,1017.77
2023-03-03T06:00:29.776Z,1017.75
2023-03-03T06:01:29.783Z,1017.74
2023-03-03T06:02:29.709Z,1017.73
2023-03-03T06:03:29.694Z,1017.75
2023-03-03T06:04:29.718Z,1017.79
2023-03-03T06:05:29.673Z,1017.78
2023-03-03T06:06:29.688Z,1017.80
2023-03-03T06:07:29.651Z,1017.80
2023-03-03T06:08:29.689Z,1017.73
2023-03-03T06:09:29.638Z,1017.72
2023-03-03T06:10:29.654Z,1017.75
2023-03-03T06:11:29.609Z,1017.78
2023-03-03T06:12:29.600Z,1017.74
2023-03-03T06:13:29.606Z,1017.74
2023-03-03T06:14:29.608Z,1017.72
2023-03-03T06:15:29.694Z,1017.72
2023-03-03T06:16:29.694Z,1017.69
2023-03-03T06:18:31.394Z,1017.72
2023-03-03T06:19:31.395Z,1017.76
2023-03-03T06:20:31.363Z,1017.75
2023-03-03T06:21:31.355Z,1017.78
2023-03-03T06:22:31.376Z,1017.77
2023-03-03T06:23:31.338Z,1017.82
2023-03-03T06:24:31.319Z,1017.83
2023-03-03T06:25:31.316Z,1017.86
2023-03-03T06:26:31.305Z,1017.89
2023-03-03T06:27:31.299Z,1017.91
2023-03-03T06:28:31.298Z,1017.92
2023-03-03T06:29:31.269Z,1017.91
2023-03-03T06:30:31.264Z,1017.98
2023-03-03T06:31:31.263Z,1017.96
2023-03-03T06:32:31.344Z,1017.92
2023-03-03T06:33:31.237Z,1017.95
2023-03-03T06:34:31.230Z,1017.93
2023-03-03T06:35:31.311Z,1017.95
2023-03-03T06:36:31.188Z,1017.95
2023-03-03T06:37:31.178Z,1017.92
2023-03-03T06:38:31.177Z,1017.95
2023-03-03T06:39:31.186Z,1017.98
2023-03-03T06:40:31.178Z,1017.99
2023-03-03T06:41:31.131Z,1017.96
2023-03-03T06:42:31.140Z,1017.95
2023-03-03T06:43:31.113Z,1018.00
2023-03-03T06:44:31.108Z,1017.95
2023-03-03T06:45:31.146Z,1017.97
2023-03-03T06:46:31.107Z,1017.98
2023-03-03T06:47:31.098Z,1017.97
2023-03-03T06:48:31.085Z,1017.98
2023-03-03T06:49:31.048Z,1018.00
2023-03-03T06:50:31.033Z,1018.01
2023-03-03T06:51:31.073Z,1018.02
2023-03-03T06:52:31.155Z,1018.05
2023-03-03T06:53:31.008Z,1018.06
2023-03-03T06:54:31.277Z,1018.09
2023-03-03T06:55:30.979Z,1018.09
2023-03-03T06:56:30.984Z,1018.16
2023-03-03T06:57:30.962Z,1018.15
2023-03-03T06:58:30.945Z,1018.20
2023-03-03T06:59:30.952Z,1018.18
2023-03-03T07:00:31.312Z,1018.25
2023-03-03T07:01:30.934Z,1018.25
2023-03-03T07:02:30.907Z,1018.30
2023-03-03T07:03:30.893Z,1018.26
2023-03-03T07:04:31.143Z,1018.26
2023-03-03T07:05:30.894Z,1018.26
2023-03-03T07:06:30.896Z,1018.31
2023-03-03T07:07:30.872Z,1018.30
2023-03-03T07:08:30.850Z,1018.29
2023-03-03T07:09:30.850Z,1018.39
2023-03-03T07:10:30.953Z,1018.26
2023-03-03T07:11:30.833Z,1018.22
2023-03-03T07:12:30.812Z,1018.21
2023-03-03T07:13:30.797Z,1018.21
2023-03-03T07:14:30.789Z,1018.23
2023-03-03T07:15:30.782Z,1018.24
2023-03-03T07:16:30.842Z,1018.28
2023-03-03T07:17:30.785Z,1018.35
2023-03-03T07:18:30.761Z,1018.31
2023-03-03T07:19:30.733Z,1018.36
2023-03-03T07:20:30.756Z,1018.40
2023-03-03T07:21:30.718Z,1018.38
2023-03-03T07:22:30.701Z,1018.47
2023-03-03T07:23:30.695Z,1018.40
2023-03-03T07:24:30.725Z,1018.40
2023-03-03T07:25:30.679Z,1018.31
2023-03-03T07:26:30.685Z,1018.32
2023-03-03T07:27:30.657Z,1018.37
2023-03-03T07:28:30.667Z,1018.41
2023-03-03T07:29:30.693Z,1018.49
2023-03-03T07:30:30.819Z,1018.46
2023-03-03T07:31:30.622Z,1018.49
2023-03-03T07:32:30.664Z,1018.40
2023-03-03T07:33:30.604Z,1018.47
2023-03-03T07:34:30.593Z,1018.45
2023-03-03T07:35:30.671Z,1018.41
2023-03-03T07:36:30.585Z,1018.46
2023-03-03T07:37:30.620Z,1018.43
2023-03-03T07:38:30.553Z,1018.36
2023-03-03T07:39:30.537Z,1018.42
2023-03-03T07:40:30.508Z,1018.43
2023-03-03T07:41:30.502Z,1018.41
2023-03-03T07:42:30.492Z,1018.41
2023-03-03T07:43:30.511Z,1018.42
2023-03-03T07:44:30.487Z,1018.47
2023-03-03T07:45:30.457Z,1018.44
2023-03-03T07:46:30.588Z,1018.46
2023-03-03T07:47:30.455Z,1018.49
2023-03-03T07:48:30.442Z,1018.48
2023-03-03T07:49:30.418Z,1018.45
2023-03-03T07:50:30.401Z,1018.53
2023-03-03T07:51:30.395Z,1018.58
2023-03-03T07:52:30.396Z,1018.58
2023-03-03T07:53:30.388Z,1018.57
2023-03-03T07:54:30.363Z,1018.56
2023-03-03T07:55:30.364Z,1018.56
2023-03-03T07:56:30.413Z,1018.58
2023-03-03T07:57:30.325Z,1018.54
2023-03-03T07:58:30.334Z,1018.55
2023-03-03T07:59:30.321Z,1018.55
2023-03-03T08:00:30.376Z,1018.55
2023-03-03T08:01:30.284Z,1018.57
2023-03-03T08:02:30.273Z,1018.58
2023-03-03T08:03:30.267Z,1018.52
2023-03-03T08:04:30.427Z,1018.58
2023-03-03T08:05:30.342Z,1018.55
2023-03-03T08:06:30.227Z,1018.55
2023-03-03T08:07:30.217Z,1018.55
2023-03-03T08:08:30.725Z,1018.58
2023-03-03T08:09:30.215Z,1018.59
2023-03-03T08:10:30.252Z,1018.59
2023-03-03T08:11:30.171Z,1018.54
2023-03-03T08:12:30.166Z,1018.60
2023-03-03T08:13:30.251Z,1018.57
2023-03-03T08:14:30.139Z,1018.61
2023-03-03T08:15:30.337Z,1018.63
2023-03-03T08:16:30.109Z,1018.59
2023-03-03T08:17:30.107Z,1018.52
2023-03-03T08:18:30.107Z,1018.52
2023-03-03T08:19:30.078Z,1018.47
2023-03-03T08:20:30.263Z,1018.46
2023-03-03T08:21:30.045Z,1018.49
2023-03-03T08:22:30.619Z,1018.50
2023-03-03T08:23:30.044Z,1018.51
2023-03-03T08:24:30.044Z,1018.49
2023-03-03T08:25:30.020Z,1018.43
2023-03-03T08:26:30.025Z,1018.45
2023-03-03T08:27:29.988Z,1018.43
2023-03-03T08:28:29.989Z,1018.50
2023-03-03T08:29:29.958Z,1018.44
2023-03-03T08:30:29.945Z,1018.51
2023-03-03T08:31:40.826Z,1018.51
2023-03-03T08:32:31.188Z,1018.51
2023-03-03T08:33:29.925Z,1018.51
2023-03-03T08:34:29.975Z,1018.43
2023-03-03T08:35:29.927Z,1018.42
2023-03-03T08:36:29.878Z,1018.45
2023-03-03T08:37:29.866Z,1018.48
2023-03-03T08:38:29.872Z,1018.50
2023-03-03T08:39:29.859Z,1018.54
2023-03-03T08:40:29.854Z,1018.53
2023-03-03T08:41:29.837Z,1018.56
2023-03-03T08:42:29.811Z,1018.60
2023-03-03T08:43:29.824Z,1018.58
2023-03-03T08:44:29.791Z,1018.60
2023-03-03T08:45:29.779Z,1018.54
2023-03-03T08:46:29.803Z,1018.53
2023-03-03T08:47:29.763Z,1018.54
2023-03-03T08:48:29.754Z,1018.53
2023-03-03T08:49:29.752Z,1018.57
2023-03-03T08:50:29.729Z,1018.55
2023-03-03T08:51:29.740Z,1018.61
2023-03-03T08:52:29.722Z,1018.54
2023-03-03T08:53:29.726Z,1018.56
2023-03-03T08:54:29.682Z,1018.57
2023-03-03T08:55:29.678Z,1018.58
2023-03-03T08:56:29.682Z,1018.57
2023-03-03T08:57:29.737Z,1018.57
2023-03-03T08:58:35.153Z,1018.57
2023-03-03T08:59:30.647Z,1018.58
2023-03-03T09:00:29.624Z,1018.56
2023-03-03T09:01:29.691Z,1018.57
2023-03-03T09:02:29.604Z,1018.58
2023-03-03T09:03:29.595Z,1018.55
2023-03-03T09:04:29.706Z,1018.54
2023-03-03T09:05:29.561Z,1018.48
2023-03-03T09:06:29.594Z,1018.49
2023-03-03T09:07:30.126Z,1018.45
2023-03-03T09:08:29.533Z,1018.44
2023-03-03T09:09:29.543Z,1018.45
2023-03-03T09:10:29.533Z,1018.42
2023-03-03T09:11:29.508Z,1018.40
2023-03-03T09:12:29.503Z,1018.39
2023-03-03T09:13:29.484Z,1018.38
2023-03-03T09:14:29.467Z,1018.38
2023-03-03T09:15:29.478Z,1018.35
2023-03-03T09:16:29.507Z,1018.38
2023-03-03T09:17:29.595Z,1018.38
2023-03-03T09:18:29.423Z,1018.40
2023-03-03T09:19:29.487Z,1018.40
2023-03-03T09:20:29.404Z,1018.40
2023-03-03T09:21:29.392Z,1018.42
2023-03-03T09:22:29.381Z,1018.38
2023-03-03T09:23:29.368Z,1018.40
2023-03-03T09:24:29.431Z,1018.37
2023-03-03T09:25:29.344Z,1018.40
2023-03-03T09:26:29.409Z,1018.46
2023-03-03T09:27:29.323Z,1018.46
2023-03-03T09:28:29.332Z,1018.42
2023-03-03T09:29:29.424Z,1018.40
2023-03-03T09:30:29.318Z,1018.44
2023-03-03T09:31:29.307Z,1018.43
2023-03-03T09:32:29.312Z,1018.45
2023-03-03T09:33:29.264Z,1018.48
2023-03-03T09:34:29.261Z,1018.47
2023-03-03T09:35:29.293Z,1018.46
2023-03-03T09:36:29.438Z,1018.42
2023-03-03T09:37:29.214Z,1018.43
2023-03-03T09:38:29.256Z,1018.47
2023-03-03T09:39:29.218Z,1018.47
2023-03-03T09:40:29.182Z,1018.48
2023-03-03T09:41:29.176Z,1018.45
2023-03-03T09:42:29.166Z,1018.47
2023-03-03T09:43:29.152Z,1018.50
2023-03-03T09:44:29.154Z,1018.51
2023-03-03T09:45:29.147Z,1018.44
2023-03-03T09:46:29.190Z,1018.47
2023-03-03T09:47:29.108Z,1018.49
2023-03-03T09:48:29.093Z,1018.53
2023-03-03T09:49:29.102Z,1018.49
2023-03-03T09:50:29.194Z,1018.47
2023-03-03T09:51:29.083Z,1018.45
2023-03-03T09:52:29.047Z,1018.46
2023-03-03T09:53:29.048Z,1018.43
2023-03-03T09:54:29.045Z,1018.43
2023-03-03T09:55:29.016Z,1018.43
2023-03-03T09:56:29.023Z,1018.39
2023-03-03T09:57:29.019Z,1018.41
2023-03-03T09:58:28.985Z,1018.41
2023-03-03T09:59:28.992Z,1018.36
2023-03-03T10:00:29.005Z,1018.33
2023-03-03T10:01:28.964Z,1018.28
2023-03-03T10:02:28.942Z,1018.32
2023-03-03T10:03:28.976Z,1018.26
2023-03-03T10:04:28.959Z,1018.23
2023-03-03T10:05:28.922Z,1018.33
2023-03-03T10:06:28.904Z,1018.32
2023-03-03T10:07:29.634Z,1018.34
2023-03-03T10:08:31.202Z,1018.35
2023-03-03T10:09:29.167Z,1018.39
2023-03-03T10:10:28.853Z,1018.37
2023-03-03T10:11:28.843Z,1018.37
2023-03-03T10:12:28.829Z,1018.38
2023-03-03T10:13:28.824Z,1018.42
2023-03-03T10:14:29.158Z,1018.41
2023-03-03T10:15:28.833Z,1018.45
2023-03-03T10:16:28.854Z,1018.47
2023-03-03T10:17:28.779Z,1018.43
2023-03-03T10:18:28.790Z,1018.39
2023-03-03T10:19:28.773Z,1018.36
2023-03-03T10:20:34.787Z,1018.36
2023-03-03T10:21:29.725Z,1018.36
2023-03-03T10:22:28.769Z,1018.34
2023-03-03T10:23:28.730Z,1018.36
2023-03-03T10:24:28.709Z,1018.35
2023-03-03T10:25:28.690Z,1018.38
2023-03-03T10:26:42.146Z,1018.29
2023-03-03T10:27:29.665Z,1018.27
2023-03-03T10:28:28.659Z,1018.25
2023-03-03T10:29:30.726Z,1018.26
2023-03-03T10:30:39.864Z,1018.29
2023-03-03T10:31:29.728Z,1018.23
2023-03-03T10:32:28.835Z,1018.30
2023-03-03T10:33:28.900Z,1018.33
2023-03-03T10:34:28.588Z,1018.30
2023-03-03T10:35:28.608Z,1018.29
2023-03-03T10:36:30.466Z,1018.30
2023-03-03T10:37:28.581Z,1018.28
2023-03-03T10:38:28.547Z,1018.34
2023-03-03T10:39:28.544Z,1018.27
2023-03-03T10:40:28.636Z,1018.32
2023-03-03T10:41:28.516Z,1018.30
2023-03-03T10:42:28.690Z,1018.36
2023-03-03T10:43:32.250Z,1018.31
2023-03-03T10:44:28.480Z,1018.33
2023-03-03T10:45:28.527Z,1018.35
2023-03-03T10:46:28.472Z,1018.32
2023-03-03T10:47:28.642Z,1018.33
2023-03-03T10:48:28.480Z,1018.35
2023-03-03T10:49:28.444Z,1018.36
2023-03-03T10:50:28.425Z,1018.38
2023-03-03T10:51:28.408Z,1018.39
2023-03-03T10:52:28.442Z,1018.38
2023-03-03T10:53:28.394Z,1018.32
2023-03-03T10:54:28.452Z,1018.33
2023-03-03T10:55:28.355Z,1018.38
2023-03-03T10:56:28.345Z,1018.41
2023-03-03T10:57:28.356Z,1018.36
2023-03-03T10:58:28.425Z,1018.38
2023-03-03T10:59:29.292Z,1018.37
2023-03-03T11:00:28.303Z,1018.41
2023-03-03T11:01:28.446Z,1018.43
2023-03-03T11:02:28.349Z,1018.48
2023-03-03T11:03:28.282Z,1018.44
2023-03-03T11:04:28.331Z,1018.43
2023-03-03T11:05:28.246Z,1018.40
2023-03-03T11:06:28.362Z,1018.42
2023-03-03T11:07:28.227Z,1018.36
2023-03-03T11:08:28.383Z,1018.36
2023-03-03T11:09:28.204Z,1018.39
2023-03-03T11:10:28.214Z,1018.39
2023-03-03T11:11:28.180Z,1018.34
2023-03-03T11:12:28.177Z,1018.36
2023-03-03T11:13:28.174Z,1018.36
2023-03-03T11:14:28.183Z,1018.34
2023-03-03T11:15:28.143Z,1018.36
2023-03-03T11:16:28.264Z,1018.33
2023-03-03T11:17:28.127Z,1018.29
2023-03-03T11:18:28.104Z,1018.31
2023-03-03T11:19:28.179Z,1018.30
2023-03-03T11:20:28.105Z,1018.32
2023-03-03T11:21:28.086Z,1018.32
2023-03-03T11:22:28.075Z,1018.35
2023-03-03T11:23:28.048Z,1018.29
2023-03-03T11:24:28.220Z,1018.32
2023-03-03T11:25:28.028Z,1018.32
2023-03-03T11:26:28.034Z,1018.32
2023-03-03T11:27:28.004Z,1018.29
2023-03-03T11:28:27.995Z,1018.32
2023-03-03T11:29:28.014Z,1018.31
2023-03-03T11:30:28.614Z,1018.33
2023-03-03T11:31:30.015Z,1018.34
2023-03-03T11:32:27.975Z,1018.34
2023-03-03T11:33:27.946Z,1018.33
2023-03-03T11:34:27.932Z,1018.29
2023-03-03T11:35:27.970Z,1018.32
2023-03-03T11:36:27.938Z,1018.32
2023-03-03T11:37:27.894Z,1018.35
2023-03-03T11:38:27.891Z,1018.28
2023-03-03T11:39:27.874Z,1018.25
2023-03-03T11:40:27.866Z,1018.25
2023-03-03T11:41:27.876Z,1018.24
2023-03-03T11:42:27.838Z,1018.23
2023-03-03T11:43:36.517Z,1018.24
2023-03-03T11:44:28.830Z,1018.22
2023-03-03T11:45:27.826Z,1018.25
2023-03-03T11:46:27.820Z,1018.24
2023-03-03T11:47:29.708Z,1018.23
2023-03-03T11:48:27.775Z,1018.23
2023-03-03T11:49:27.770Z,1018.25
2023-03-03T11:50:27.757Z,1018.23
2023-03-03T11:51:28.218Z,1018.19
2023-03-03T11:52:27.767Z,1018.19
2023-03-03T11:53:27.725Z,1018.18
2023-03-03T11:54:27.710Z,1018.16
2023-03-03T11:55:27.705Z,1018.19
2023-03-03T11:56:27.686Z,1018.15
2023-03-03T11:57:27.691Z,1018.17
2023-03-03T11:58:27.669Z,1018.16
2023-03-03T11:59:27.656Z,1018.12
2023-03-03T12:00:27.640Z,1018.15
2023-03-03T12:01:27.803Z,1018.10
2023-03-03T12:02:27.669Z,1018.07
2023-03-03T12:03:27.654Z,1018.03
2023-03-03T12:04:27.597Z,1018.01
2023-03-03T12:05:27.598Z,1017.97
2023-03-03T12:06:27.575Z,1017.89